Time;durP1;ratioP1;P1;durP2;ratioP2;P2;SDS_P1;SDS_P2;PMS_P1;PMS_P2;Temp;Humidity;BMP_temperature;BMP_pressure;BME280_temperature;BME280_humidity;BME280_pressure;Samples;Min_cycle;Max_cycle;Signal;HPM_P1;HPM_P2
2021/08/02 00:00:58;;;;;;;27.00;18.67;;;;;;;;;;5036060;28;20444;-60
2021/08/02 00:03:35;;;;;;;26.15;18.17;;;;;;;;;;5036286;28;20047;-60
2021/08/02 00:06:02;;;;;;;27.25;18.27;;;;;;;;;;5036387;28;20059;-60
2021/08/02 00:08:28;;;;;;;29.55;18.02;;;;;;;;;;5033583;28;20197;-59
2021/08/02 00:10:57;;;;;;;33.53;18.77;;;;;;;;;;5035992;28;21627;-59
2021/08/02 00:13:30;;;;;;;32.10;18.58;;;;;;;;;;5035019;28;20059;-59
2021/08/02 00:15:57;;;;;;;27.33;18.40;;;;;;;;;;5034933;28;22179;-59
2021/08/02 00:18:24;;;;;;;26.42;17.10;;;;;;;;;;5035598;28;22074;-59
2021/08/02 00:20:50;;;;;;;26.45;17.33;;;;;;;;;;5035855;28;20041;-57
2021/08/02 00:23:16;;;;;;;23.60;17.70;;;;;;;;;;5036726;28;20043;-60
2021/08/02 00:25:42;;;;;;;27.98;17.42;;;;;;;;;;5036983;28;20067;-59
2021/08/02 00:28:07;;;;;;;27.75;17.52;;;;;;;;;;5036172;28;20160;-58
2021/08/02 00:30:34;;;;;;;30.30;17.98;;;;;;;;;;5036524;28;20049;-59
2021/08/02 00:33:00;;;;;;;25.23;17.75;;;;;;;;;;5035516;28;20120;-59
2021/08/02 00:35:26;;;;;;;28.63;17.77;;;;;;;;;;5035218;28;20036;-58
2021/08/02 00:37:56;;;;;;;28.48;17.23;;;;;;;;;;5034766;28;20041;-59
2021/08/02 00:40:45;;;;;;;28.05;18.15;;;;;;;;;;5034923;28;20385;-58
2021/08/02 00:43:14;;;;;;;30.65;18.45;;;;;;;;;;5036416;28;20105;-59
2021/08/02 00:45:40;;;;;;;27.67;18.95;;;;;;;;;;5033879;28;20064;-59
2021/08/02 00:48:10;;;;;;;32.30;18.85;;;;;;;;;;5034796;28;20041;-58
2021/08/02 00:50:38;;;;;;;28.55;18.90;;;;;;;;;;5036683;28;20041;-57
2021/08/02 00:53:06;;;;;;;32.85;20.70;;;;;;;;;;5044671;28;20098;-58
2021/08/02 00:55:35;;;;;;;26.75;18.73;;;;;;;;;;5064609;28;20585;-58
2021/08/02 00:58:02;;;;;;;28.92;19.45;;;;;;;;;;5068305;28;20138;-57
2021/08/02 01:00:28;;;;;;;27.83;18.27;;;;;;;;;;5047906;28;20512;-58
2021/08/02 01:02:55;;;;;;;28.05;18.55;;;;;;;;;;5041764;28;20044;-57
2021/08/02 01:05:20;;;;;;;26.88;17.88;;;;;;;;;;5039966;28;20064;-57
2021/08/02 01:07:49;;;;;;;29.30;18.45;;;;;;;;;;5038216;28;20459;-57
2021/08/02 01:10:15;;;;;;;27.30;18.23;;;;;;;;;;5039635;28;20041;-57
2021/08/02 01:12:43;;;;;;;28.20;18.98;;;;;;;;;;5036680;28;20453;-60
2021/08/02 01:15:09;;;;;;;28.90;19.30;;;;;;;;;;5037647;28;20037;-57
2021/08/02 01:17:35;;;;;;;31.17;20.17;;;;;;;;;;5037815;28;20126;-57
2021/08/02 01:20:03;;;;;;;29.67;18.02;;;;;;;;;;5040014;28;20965;-57
2021/08/02 01:22:29;;;;;;;28.80;18.92;;;;;;;;;;5037876;28;20041;-58
2021/08/02 01:24:56;;;;;;;31.13;20.17;;;;;;;;;;5038971;28;20087;-56
2021/08/02 01:27:31;;;;;;;29.10;18.50;;;;;;;;;;5037484;28;20032;-58
2021/08/02 01:30:20;;;;;;;31.38;19.45;;;;;;;;;;5011023;28;20037;-57
2021/08/02 01:32:47;;;;;;;31.50;19.65;;;;;;;;;;5043838;28;20466;-58
2021/08/02 01:35:13;;;;;;;26.80;18.65;;;;;;;;;;5038653;28;20033;-57
2021/08/02 01:37:40;;;;;;;29.67;19.20;;;;;;;;;;5037113;28;20049;-57
2021/08/02 01:40:06;;;;;;;32.70;19.50;;;;;;;;;;5039729;28;20049;-57
2021/08/02 01:42:32;;;;;;;31.23;19.40;;;;;;;;;;5038263;28;20127;-58
2021/08/02 01:44:58;;;;;;;37.70;19.65;;;;;;;;;;5037731;28;20053;-56
2021/08/02 01:47:24;;;;;;;31.27;19.63;;;;;;;;;;5037848;28;20051;-57
2021/08/02 01:49:53;;;;;;;31.95;19.80;;;;;;;;;;5038257;28;20513;-57
2021/08/02 01:52:26;;;;;;;32.72;19.40;;;;;;;;;;5037761;28;20084;-56
2021/08/02 01:54:56;;;;;;;31.92;19.27;;;;;;;;;;5046219;28;20047;-58
2021/08/02 01:57:36;;;;;;;31.10;20.17;;;;;;;;;;5059272;28;20115;-57
2021/08/02 02:00:06;;;;;;;31.13;20.38;;;;;;;;;;5052061;28;20039;-58
2021/08/02 02:02:32;;;;;;;30.67;19.65;;;;;;;;;;5059910;28;20052;-57
2021/08/02 02:04:58;;;;;;;33.75;19.30;;;;;;;;;;5062210;28;20072;-56
2021/08/02 02:07:26;;;;;;;35.25;20.60;;;;;;;;;;5052452;28;20036;-57
2021/08/02 02:09:53;;;;;;;33.90;20.40;;;;;;;;;;5059977;28;20028;-58
2021/08/02 02:12:19;;;;;;;33.92;19.17;;;;;;;;;;5049892;28;20063;-59
2021/08/02 02:14:45;;;;;;;31.50;19.75;;;;;;;;;;5038549;28;20036;-58
2021/08/02 02:17:10;;;;;;;33.63;20.00;;;;;;;;;;5037759;28;20048;-59
2021/08/02 02:19:37;;;;;;;34.05;20.02;;;;;;;;;;5036208;28;20037;-59
2021/08/02 02:22:03;;;;;;;30.35;19.38;;;;;;;;;;5037521;28;20045;-59
2021/08/02 02:24:30;;;;;;;32.78;19.65;;;;;;;;;;5036547;28;20106;-58
2021/08/02 02:26:56;;;;;;;35.35;19.10;;;;;;;;;;5036539;28;20048;-57
2021/08/02 02:29:23;;;;;;;30.92;19.73;;;;;;;;;;5035842;28;20040;-58
2021/08/02 02:31:49;;;;;;;36.55;18.98;;;;;;;;;;5038217;28;20120;-55
2021/08/02 02:34:16;;;;;;;33.80;19.25;;;;;;;;;;5037549;28;20068;-57
2021/08/02 02:36:42;;;;;;;30.63;18.98;;;;;;;;;;5035875;28;20128;-57
2021/08/02 02:39:09;;;;;;;34.67;18.60;;;;;;;;;;5037135;28;22040;-59
2021/08/02 02:41:35;;;;;;;31.15;19.10;;;;;;;;;;5036465;28;21282;-55
2021/08/02 02:44:02;;;;;;;35.72;19.27;;;;;;;;;;5038782;28;20076;-57
2021/08/02 02:46:28;;;;;;;29.15;18.20;;;;;;;;;;5036831;28;20149;-57
2021/08/02 02:48:54;;;;;;;31.63;19.27;;;;;;;;;;5039239;28;20037;-58
2021/08/02 02:51:21;;;;;;;29.00;18.10;;;;;;;;;;5037586;28;20067;-58
2021/08/02 02:53:48;;;;;;;32.67;18.15;;;;;;;;;;5038587;28;20413;-58
2021/08/02 02:56:14;;;;;;;30.63;18.15;;;;;;;;;;5038003;28;20427;-59
2021/08/02 02:58:41;;;;;;;29.67;18.08;;;;;;;;;;5035718;28;20037;-58
2021/08/02 03:01:07;;;;;;;38.47;19.83;;;;;;;;;;5037931;28;20095;-57
2021/08/02 03:03:34;;;;;;;35.47;18.77;;;;;;;;;;5036369;28;20482;-58
2021/08/02 03:06:01;;;;;;;35.13;18.70;;;;;;;;;;5036083;28;20126;-57
2021/08/02 03:08:27;;;;;;;37.47;20.05;;;;;;;;;;5035746;28;20478;-58
2021/08/02 03:10:54;;;;;;;27.50;17.30;;;;;;;;;;5036340;28;20029;-59
2021/08/02 03:13:20;;;;;;;35.13;18.23;;;;;;;;;;5035957;28;20074;-58
2021/08/02 03:15:45;;;;;;;35.53;17.58;;;;;;;;;;5034910;28;20041;-58
2021/08/02 03:18:11;;;;;;;26.52;16.35;;;;;;;;;;5036003;28;20494;-58
2021/08/02 03:20:37;;;;;;;27.52;18.50;;;;;;;;;;5036227;28;20106;-56
2021/08/02 03:23:21;;;;;;;32.58;17.70;;;;;;;;;;5035829;28;20045;-58
2021/08/02 03:26:07;;;;;;;27.83;16.55;;;;;;;;;;5054835;28;20056;-58
2021/08/02 03:28:39;;;;;;;30.10;17.52;;;;;;;;;;5036781;28;20068;-58
2021/08/02 03:31:08;;;;;;;27.35;17.58;;;;;;;;;;5036981;28;20041;-58
2021/08/02 03:33:35;;;;;;;26.42;16.45;;;;;;;;;;5036708;28;20036;-58
2021/08/02 03:36:03;;;;;;;33.53;17.02;;;;;;;;;;5035448;28;20057;-59
2021/08/02 03:38:30;;;;;;;30.65;16.83;;;;;;;;;;5035428;28;20045;-58
2021/08/02 03:40:57;;;;;;;27.13;16.17;;;;;;;;;;5036042;28;20041;-59
2021/08/02 03:43:23;;;;;;;33.15;17.05;;;;;;;;;;5035361;28;20444;-58
2021/08/02 03:45:49;;;;;;;32.55;17.38;;;;;;;;;;5036164;28;20060;-59
2021/08/02 03:48:19;;;;;;;30.15;16.92;;;;;;;;;;5069635;28;20048;-59
2021/08/02 03:50:46;;;;;;;39.67;17.58;;;;;;;;;;5043516;28;20040;-58
2021/08/02 03:53:12;;;;;;;29.98;17.20;;;;;;;;;;5035957;28;20573;-58
2021/08/02 03:55:38;;;;;;;31.58;16.98;;;;;;;;;;5030082;28;20037;-57
2021/08/02 03:58:05;;;;;;;32.25;17.20;;;;;;;;;;5033660;28;20099;-58
2021/08/02 04:00:31;;;;;;;37.80;16.25;;;;;;;;;;5034814;28;20056;-57
2021/08/02 04:02:57;;;;;;;30.05;16.98;;;;;;;;;;5034834;28;20073;-58
2021/08/02 04:05:23;;;;;;;32.67;17.70;;;;;;;;;;5034742;28;20178;-58
2021/08/02 04:07:48;;;;;;;26.45;16.30;;;;;;;;;;5033981;28;20063;-57
2021/08/02 04:10:14;;;;;;;29.67;16.83;;;;;;;;;;5034892;28;20040;-58
2021/08/02 04:12:40;;;;;;;29.40;16.65;;;;;;;;;;5035328;28;20506;-58
2021/08/02 04:15:08;;;;;;;30.17;16.98;;;;;;;;;;5034758;28;20060;-58
2021/08/02 04:17:33;;;;;;;28.67;17.02;;;;;;;;;;5032977;28;20128;-58
2021/08/02 04:19:59;;;;;;;25.83;16.13;;;;;;;;;;5035898;28;20221;-59
2021/08/02 04:22:25;;;;;;;26.63;16.30;;;;;;;;;;5069021;28;20075;-57
2021/08/02 04:24:51;;;;;;;34.85;16.92;;;;;;;;;;5037004;28;20052;-61
2021/08/02 04:27:17;;;;;;;29.00;16.77;;;;;;;;;;5026797;28;20916;-58
2021/08/02 04:29:42;;;;;;;29.65;17.05;;;;;;;;;;5033571;28;20048;-58
2021/08/02 04:32:09;;;;;;;27.45;16.77;;;;;;;;;;5035222;28;20047;-60
2021/08/02 04:34:35;;;;;;;29.17;17.23;;;;;;;;;;5031545;28;20045;-57
2021/08/02 04:37:01;;;;;;;28.23;17.30;;;;;;;;;;5045215;28;20375;-56
2021/08/02 04:39:27;;;;;;;28.60;16.75;;;;;;;;;;5033265;28;20064;-57
2021/08/02 04:41:53;;;;;;;30.40;17.05;;;;;;;;;;5033389;28;20044;-57
2021/08/02 04:44:19;;;;;;;27.23;16.65;;;;;;;;;;5034323;28;20132;-56
2021/08/02 04:46:44;;;;;;;30.00;16.10;;;;;;;;;;5033968;28;20095;-57
2021/08/02 04:49:10;;;;;;;31.13;17.38;;;;;;;;;;5034166;28;20041;-57
2021/08/02 04:51:36;;;;;;;29.25;17.05;;;;;;;;;;5037251;28;20089;-57
2021/08/02 04:54:02;;;;;;;28.15;15.73;;;;;;;;;;5038183;28;20078;-59
2021/08/02 04:56:28;;;;;;;29.55;16.63;;;;;;;;;;5037490;28;20037;-56
2021/08/02 04:58:53;;;;;;;31.15;17.80;;;;;;;;;;5036612;28;20056;-57
2021/08/02 05:01:20;;;;;;;26.77;16.20;;;;;;;;;;5038647;28;20406;-56
2021/08/02 05:03:46;;;;;;;27.98;15.75;;;;;;;;;;5039354;28;20045;-56
2021/08/02 05:06:12;;;;;;;28.67;16.55;;;;;;;;;;5038216;28;20090;-56
2021/08/02 05:08:38;;;;;;;28.55;17.05;;;;;;;;;;5037502;28;20044;-56
2021/08/02 05:11:04;;;;;;;27.83;17.58;;;;;;;;;;5037929;28;20033;-56
2021/08/02 05:13:29;;;;;;;31.55;16.65;;;;;;;;;;5038601;28;20047;-56
2021/08/02 05:15:55;;;;;;;28.80;15.98;;;;;;;;;;5038456;28;20040;-57
2021/08/02 05:18:21;;;;;;;27.00;16.00;;;;;;;;;;5037894;28;20120;-56
2021/08/02 05:20:47;;;;;;;36.65;16.65;;;;;;;;;;5037421;28;20033;-56
2021/08/02 05:23:13;;;;;;;30.67;17.30;;;;;;;;;;5038798;28;20044;-56
2021/08/02 05:25:38;;;;;;;25.73;15.65;;;;;;;;;;5038149;28;20110;-56
2021/08/02 05:28:04;;;;;;;28.90;16.17;;;;;;;;;;5038095;28;20052;-56
2021/08/02 05:30:30;;;;;;;31.90;16.02;;;;;;;;;;5037948;28;20029;-57
2021/08/02 05:32:56;;;;;;;30.85;16.27;;;;;;;;;;5032478;28;21593;-56
2021/08/02 05:35:22;;;;;;;28.35;15.95;;;;;;;;;;5036429;28;20076;-57
2021/08/02 05:37:48;;;;;;;26.73;15.15;;;;;;;;;;5038003;28;20045;-57
2021/08/02 05:40:14;;;;;;;27.13;15.88;;;;;;;;;;5038992;28;20041;-55
2021/08/02 05:42:40;;;;;;;32.35;15.55;;;;;;;;;;5038160;28;20061;-56
2021/08/02 05:45:06;;;;;;;27.17;15.70;;;;;;;;;;5038055;28;20049;-56
2021/08/02 05:47:32;;;;;;;25.30;15.60;;;;;;;;;;5035850;28;20040;-56
2021/08/02 05:49:58;;;;;;;30.65;15.75;;;;;;;;;;5036948;28;20603;-57
2021/08/02 05:52:24;;;;;;;24.52;15.98;;;;;;;;;;5036790;28;20048;-57
2021/08/02 05:54:50;;;;;;;33.08;16.85;;;;;;;;;;5037354;28;20430;-57
2021/08/02 05:57:20;;;;;;;32.50;17.08;;;;;;;;;;5035804;28;20036;-56
2021/08/02 05:59:46;;;;;;;29.50;17.48;;;;;;;;;;5044598;28;20037;-56
2021/08/02 06:02:12;;;;;;;33.53;18.08;;;;;;;;;;5036320;28;20486;-57
2021/08/02 06:04:37;;;;;;;31.70;15.32;;;;;;;;;;5039080;28;20117;-57
2021/08/02 06:07:03;;;;;;;36.40;16.77;;;;;;;;;;5037881;28;20041;-56
2021/08/02 06:09:29;;;;;;;36.78;15.82;;;;;;;;;;5037084;28;20477;-57
2021/08/02 06:11:55;;;;;;;33.15;15.88;;;;;;;;;;5038655;28;20051;-56
2021/08/02 06:14:21;;;;;;;29.52;16.90;;;;;;;;;;5043721;28;20385;-55
2021/08/02 06:16:47;;;;;;;28.75;15.93;;;;;;;;;;5040955;28;20127;-55
2021/08/02 06:19:12;;;;;;;25.70;15.35;;;;;;;;;;5041407;28;20123;-56
2021/08/02 06:21:38;;;;;;;36.28;16.30;;;;;;;;;;5044353;28;20072;-55
2021/08/02 06:24:04;;;;;;;34.58;15.88;;;;;;;;;;5038972;28;20052;-56
2021/08/02 06:26:31;;;;;;;28.60;16.30;;;;;;;;;;5036699;28;20047;-56
2021/08/02 06:28:57;;;;;;;34.90;16.48;;;;;;;;;;5038647;28;20040;-56
2021/08/02 06:31:23;;;;;;;29.42;15.85;;;;;;;;;;5039278;28;20341;-56
2021/08/02 06:33:49;;;;;;;36.25;15.82;;;;;;;;;;5038440;28;20041;-56
2021/08/02 06:36:17;;;;;;;27.02;15.95;;;;;;;;;;5039876;28;20992;-58
2021/08/02 06:38:43;;;;;;;29.02;15.32;;;;;;;;;;5037605;28;20164;-58
2021/08/02 06:41:09;;;;;;;31.13;16.33;;;;;;;;;;5038641;28;20140;-57
2021/08/02 06:43:34;;;;;;;33.50;16.58;;;;;;;;;;5036866;28;20041;-56
2021/08/02 06:46:00;;;;;;;25.67;14.98;;;;;;;;;;5037057;28;20619;-58
2021/08/02 06:48:26;;;;;;;30.23;14.77;;;;;;;;;;5037523;28;20032;-54
2021/08/02 06:50:52;;;;;;;31.50;15.82;;;;;;;;;;5037216;28;20123;-57
2021/08/02 06:53:18;;;;;;;26.70;15.82;;;;;;;;;;5036712;28;20045;-56
2021/08/02 06:55:44;;;;;;;30.83;15.88;;;;;;;;;;5037210;28;20037;-57
2021/08/02 06:58:10;;;;;;;29.77;15.15;;;;;;;;;;5036995;28;20548;-57
2021/08/02 07:00:36;;;;;;;34.33;16.35;;;;;;;;;;5037400;28;20045;-57
2021/08/02 07:03:02;;;;;;;27.15;14.93;;;;;;;;;;5037061;28;20045;-57
2021/08/02 07:05:28;;;;;;;26.52;15.57;;;;;;;;;;5036013;28;20122;-57
2021/08/02 07:07:54;;;;;;;28.92;15.27;;;;;;;;;;5037650;28;20041;-57
2021/08/02 07:10:20;;;;;;;28.42;15.57;;;;;;;;;;5037805;28;20060;-56
2021/08/02 07:12:46;;;;;;;26.70;15.98;;;;;;;;;;5036660;28;20119;-56
2021/08/02 07:15:12;;;;;;;26.85;14.98;;;;;;;;;;5036064;28;20032;-57
2021/08/02 07:17:38;;;;;;;28.30;15.73;;;;;;;;;;5035005;28;20045;-58
2021/08/02 07:20:04;;;;;;;29.83;15.90;;;;;;;;;;5036759;28;20128;-56
2021/08/02 07:22:30;;;;;;;27.15;15.07;;;;;;;;;;5036161;28;20033;-55
2021/08/02 07:24:55;;;;;;;31.10;15.98;;;;;;;;;;5036831;28;20494;-57
2021/08/02 07:27:21;;;;;;;30.42;15.00;;;;;;;;;;5034611;28;20116;-58
2021/08/02 07:29:47;;;;;;;27.58;15.60;;;;;;;;;;5036554;28;20478;-58
2021/08/02 07:32:13;;;;;;;32.72;15.45;;;;;;;;;;5037968;28;20139;-57
2021/08/02 07:34:39;;;;;;;27.35;15.32;;;;;;;;;;5037191;28;20564;-58
2021/08/02 07:37:04;;;;;;;24.65;15.02;;;;;;;;;;5036630;28;20037;-58
2021/08/02 07:39:30;;;;;;;25.45;14.57;;;;;;;;;;5036599;28;20052;-58
2021/08/02 07:41:56;;;;;;;29.77;15.10;;;;;;;;;;5037456;28;20082;-58
2021/08/02 07:44:22;;;;;;;28.30;15.57;;;;;;;;;;5035795;28;20563;-58
2021/08/02 07:46:48;;;;;;;27.00;14.68;;;;;;;;;;5035743;28;20052;-57
2021/08/02 07:49:14;;;;;;;28.27;15.98;;;;;;;;;;5037163;28;20037;-58
2021/08/02 07:51:40;;;;;;;24.88;15.10;;;;;;;;;;5036757;28;20130;-58
2021/08/02 07:54:05;;;;;;;29.42;17.35;;;;;;;;;;5036883;28;20040;-58
2021/08/02 07:56:33;;;;;;;27.38;16.35;;;;;;;;;;5035765;28;20140;-57
2021/08/02 07:58:59;;;;;;;28.38;15.70;;;;;;;;;;5037125;28;20041;-58
2021/08/02 08:01:24;;;;;;;34.80;17.85;;;;;;;;;;5037747;28;20056;-57
2021/08/02 08:03:50;;;;;;;33.42;17.88;;;;;;;;;;5037867;28;20041;-57
2021/08/02 08:06:16;;;;;;;29.13;17.27;;;;;;;;;;5035871;28;20447;-59
2021/08/02 08:08:42;;;;;;;32.47;18.70;;;;;;;;;;5036543;28;20040;-58
2021/08/02 08:11:09;;;;;;;35.97;18.63;;;;;;;;;;5037744;28;20060;-57
2021/08/02 08:13:38;;;;;;;32.45;18.45;;;;;;;;;;5035755;28;20037;-58
2021/08/02 08:16:05;;;;;;;38.80;19.17;;;;;;;;;;5034878;28;20082;-57
2021/08/02 08:18:31;;;;;;;37.60;19.27;;;;;;;;;;5035531;28;20037;-58
2021/08/02 08:21:00;;;;;;;31.65;18.70;;;;;;;;;;5037612;28;20629;-57
2021/08/02 08:23:31;;;;;;;33.90;19.00;;;;;;;;;;5035697;28;20057;-58
2021/08/02 08:26:00;;;;;;;32.38;19.45;;;;;;;;;;5036021;28;20052;-58
2021/08/02 08:28:25;;;;;;;30.80;18.02;;;;;;;;;;5036565;28;20067;-57
2021/08/02 08:30:52;;;;;;;37.65;18.83;;;;;;;;;;5037763;28;20402;-56
2021/08/02 08:33:17;;;;;;;31.35;18.92;;;;;;;;;;5036718;28;20106;-57
2021/08/02 08:35:43;;;;;;;35.17;18.73;;;;;;;;;;5035888;28;20041;-56
2021/08/02 08:38:09;;;;;;;35.30;18.75;;;;;;;;;;5036624;28;20041;-56
2021/08/02 08:40:36;;;;;;;35.47;18.23;;;;;;;;;;5036888;28;20095;-55
2021/08/02 08:43:03;;;;;;;32.55;18.45;;;;;;;;;;5037079;28;20102;-56
2021/08/02 08:45:29;;;;;;;39.85;18.30;;;;;;;;;;5035869;28;20057;-57
2021/08/02 08:47:56;;;;;;;33.75;19.33;;;;;;;;;;5035686;28;20033;-56
2021/08/02 08:50:22;;;;;;;36.10;18.88;;;;;;;;;;5035577;28;20047;-57
2021/08/02 08:52:49;;;;;;;31.85;18.05;;;;;;;;;;5037574;28;20052;-55
2021/08/02 08:55:15;;;;;;;31.35;18.27;;;;;;;;;;5039775;28;20037;-58
2021/08/02 08:57:42;;;;;;;39.78;18.83;;;;;;;;;;5046066;28;20037;-57
2021/08/02 09:00:28;;;;;;;34.30;18.40;;;;;;;;;;5056546;28;20131;-56
2021/08/02 09:02:55;;;;;;;34.28;17.45;;;;;;;;;;5053780;28;20041;-56
2021/08/02 09:05:21;;;;;;;37.13;19.23;;;;;;;;;;5052227;28;20357;-55
2021/08/02 09:07:47;;;;;;;35.17;19.33;;;;;;;;;;5050647;28;20045;-57
2021/08/02 09:10:14;;;;;;;36.17;19.70;;;;;;;;;;5034744;28;20072;-57
2021/08/02 09:12:49;;;;;;;34.00;18.50;;;;;;;;;;5035150;28;20037;-57
2021/08/02 09:15:15;;;;;;;30.88;18.00;;;;;;;;;;5035294;28;20520;-57
2021/08/02 09:17:41;;;;;;;31.27;18.52;;;;;;;;;;5034293;28;20033;-54
2021/08/02 09:20:20;;;;;;;31.17;17.83;;;;;;;;;;5034892;28;20043;-56
2021/08/02 09:22:47;;;;;;;34.80;18.40;;;;;;;;;;5034367;28;20053;-57
2021/08/02 09:25:16;;;;;;;39.03;18.70;;;;;;;;;;5034216;28;20044;-58
2021/08/02 09:27:43;;;;;;;31.88;18.13;;;;;;;;;;5034048;28;20029;-57
2021/08/02 09:30:12;;;;;;;31.52;17.77;;;;;;;;;;5035431;28;20037;-57
2021/08/02 09:32:52;;;;;;;30.73;17.67;;;;;;;;;;5035273;28;20091;-57
2021/08/02 09:35:27;;;;;;;33.53;17.45;;;;;;;;;;5033615;28;20040;-57
2021/08/02 09:37:54;;;;;;;30.15;17.80;;;;;;;;;;5036397;28;20045;-57
2021/08/02 09:40:19;;;;;;;33.95;18.20;;;;;;;;;;5038981;28;20049;-55
2021/08/02 09:42:52;;;;;;;33.30;17.88;;;;;;;;;;5047757;28;20048;-56
2021/08/02 09:45:18;;;;;;;28.98;17.40;;;;;;;;;;5037487;28;20234;-53
2021/08/02 09:47:47;;;;;;;35.03;17.40;;;;;;;;;;5045940;28;20250;-54
2021/08/02 09:50:24;;;;;;;28.88;17.02;;;;;;;;;;5036061;28;20037;-57
2021/08/02 09:52:52;;;;;;;28.83;16.77;;;;;;;;;;5038388;28;20063;-56
2021/08/02 09:55:20;;;;;;;35.33;18.42;;;;;;;;;;5038117;28;20041;-56
2021/08/02 09:57:46;;;;;;;32.92;17.88;;;;;;;;;;5049758;28;20075;-55
2021/08/02 10:00:12;;;;;;;28.50;17.33;;;;;;;;;;5056092;28;20045;-57
2021/08/02 10:02:38;;;;;;;36.45;18.50;;;;;;;;;;5060680;28;20029;-56
2021/08/02 10:05:04;;;;;;;32.90;17.63;;;;;;;;;;5059648;28;20062;-57
2021/08/02 10:07:30;;;;;;;31.58;17.40;;;;;;;;;;5061073;28;20596;-56
2021/08/02 10:09:57;;;;;;;30.95;16.92;;;;;;;;;;5065647;28;20072;-56
2021/08/02 10:12:22;;;;;;;29.02;17.80;;;;;;;;;;5046655;28;20043;-57
2021/08/02 10:14:53;;;;;;;33.88;18.58;;;;;;;;;;5041179;28;20052;-56
2021/08/02 10:17:19;;;;;;;33.70;18.70;;;;;;;;;;5040565;28;20045;-56
2021/08/02 10:19:53;;;;;;;33.40;16.95;;;;;;;;;;5071636;28;20140;-57
2021/08/02 10:22:20;;;;;;;30.00;16.35;;;;;;;;;;5037994;28;20064;-56
2021/08/02 10:24:50;;;;;;;30.83;16.98;;;;;;;;;;5039066;28;20114;-56
2021/08/02 10:27:29;;;;;;;30.30;17.08;;;;;;;;;;5053406;28;20145;-56
2021/08/02 10:29:55;;;;;;;28.25;17.45;;;;;;;;;;5046888;28;20381;-56
2021/08/02 10:32:26;;;;;;;31.05;17.05;;;;;;;;;;5039872;28;20025;-56
2021/08/02 10:34:52;;;;;;;33.17;17.00;;;;;;;;;;5038546;28;20417;-56
2021/08/02 10:37:32;;;;;;;29.98;17.83;;;;;;;;;;5037759;28;20033;-56
2021/08/02 10:40:10;;;;;;;32.33;17.60;;;;;;;;;;5037531;28;20743;-57
2021/08/02 10:42:45;;;;;;;28.13;16.05;;;;;;;;;;5035953;28;20045;-55
2021/08/02 10:45:11;;;;;;;30.08;15.90;;;;;;;;;;5037996;28;20056;-55
2021/08/02 10:47:41;;;;;;;33.33;17.45;;;;;;;;;;5033298;28;20044;-57
2021/08/02 10:50:07;;;;;;;28.73;17.33;;;;;;;;;;5037009;28;20041;-55
2021/08/02 10:52:33;;;;;;;28.15;17.00;;;;;;;;;;5036464;28;20049;-56
2021/08/02 10:54:59;;;;;;;26.77;16.38;;;;;;;;;;5038152;28;20037;-56
2021/08/02 10:57:25;;;;;;;32.15;16.65;;;;;;;;;;5045835;28;20045;-56
2021/08/02 10:59:51;;;;;;;34.47;16.70;;;;;;;;;;5052172;28;20041;-55
2021/08/02 11:02:18;;;;;;;25.98;15.52;;;;;;;;;;5036694;28;20041;-56
2021/08/02 11:04:51;;;;;;;26.90;16.15;;;;;;;;;;5035141;28;20433;-57
2021/08/02 11:07:17;;;;;;;31.33;16.83;;;;;;;;;;5037192;28;20037;-56
2021/08/02 11:09:45;;;;;;;31.65;16.90;;;;;;;;;;5035949;28;20041;-56
2021/08/02 11:12:13;;;;;;;24.35;16.08;;;;;;;;;;5036707;28;20047;-56
2021/08/02 11:14:46;;;;;;;30.98;16.98;;;;;;;;;;5036196;28;21183;-57
2021/08/02 11:17:11;;;;;;;;;;;;;;;;;;5037766;28;20081;-56
2021/08/02 11:19:37;;;;;;;23.52;15.23;;;;;;;;;;5036706;28;19928;-56
2021/08/02 11:22:06;;;;;;;28.15;16.15;;;;;;;;;;5034969;28;20045;-55
2021/08/02 11:24:33;;;;;;;28.58;16.13;;;;;;;;;;5036127;28;20505;-56
2021/08/02 11:27:00;;;;;;;30.73;16.45;;;;;;;;;;5035902;28;20433;-57
2021/08/02 11:29:27;;;;;;;24.88;14.95;;;;;;;;;;5036220;28;20044;-56
2021/08/02 11:32:09;;;;;;;24.50;15.27;;;;;;;;;;5036343;28;20040;-55
2021/08/02 11:34:36;;;;;;;25.02;15.63;;;;;;;;;;5036406;28;20429;-56
2021/08/02 11:37:04;;;;;;;33.03;16.27;;;;;;;;;;5037645;28;20463;-56
2021/08/02 11:39:31;;;;;;;24.42;14.50;;;;;;;;;;5034150;28;20135;-56
2021/08/02 11:42:07;;;;;;;25.40;15.73;;;;;;;;;;5035774;28;20386;-55
2021/08/02 11:44:39;;;;;;;28.05;16.60;;;;;;;;;;5035939;28;20052;-56
2021/08/02 11:47:07;;;;;;;29.73;16.75;;;;;;;;;;5037155;28;20029;-56
2021/08/02 11:49:34;;;;;;;27.58;16.70;;;;;;;;;;5034992;28;20063;-57
2021/08/02 11:52:00;;;;;;;29.73;17.45;;;;;;;;;;5035554;28;20034;-56
2021/08/02 11:54:26;;;;;;;27.00;16.30;;;;;;;;;;5035957;28;20037;-56
2021/08/02 11:56:53;;;;;;;30.63;16.90;;;;;;;;;;5036826;28;20047;-54
2021/08/02 11:59:19;;;;;;;28.40;16.63;;;;;;;;;;5035329;28;20052;-56
2021/08/02 12:01:46;;;;;;;26.75;15.77;;;;;;;;;;5035693;28;20194;-56
2021/08/02 12:04:11;;;;;;;29.75;15.25;;;;;;;;;;5036106;28;20049;-56
2021/08/02 12:06:48;;;;;;;27.55;15.23;;;;;;;;;;5036189;28;20925;-56
2021/08/02 12:09:14;;;;;;;24.63;16.13;;;;;;;;;;5037184;28;20037;-55
2021/08/02 12:11:41;;;;;;;38.72;16.70;;;;;;;;;;5035681;28;20163;-57
2021/08/02 12:14:06;;;;;;;31.25;16.63;;;;;;;;;;5042439;28;20072;-56
2021/08/02 12:16:35;;;;;;;32.60;16.90;;;;;;;;;;5035838;28;20537;-55
2021/08/02 12:19:11;;;;;;;35.80;16.05;;;;;;;;;;5034061;28;20801;-56
2021/08/02 12:21:38;;;;;;;31.27;16.13;;;;;;;;;;5034793;28;21842;-58
2021/08/02 12:24:04;;;;;;;31.10;16.15;;;;;;;;;;5034344;28;20040;-58
2021/08/02 12:26:29;;;;;;;26.45;15.07;;;;;;;;;;5035556;28;20037;-57
2021/08/02 12:28:55;;;;;;;30.20;15.55;;;;;;;;;;5036482;28;20033;-56
2021/08/02 12:31:21;;;;;;;28.55;16.52;;;;;;;;;;5034639;28;20060;-57
2021/08/02 12:33:49;;;;;;;28.17;16.35;;;;;;;;;;5035824;28;20072;-56
2021/08/02 12:36:15;;;;;;;28.83;15.93;;;;;;;;;;5034786;28;20060;-56
2021/08/02 12:38:45;;;;;;;27.42;15.63;;;;;;;;;;5034304;28;20041;-56
2021/08/02 12:41:11;;;;;;;30.45;15.48;;;;;;;;;;5033293;28;20062;-56
2021/08/02 12:43:37;;;;;;;23.88;14.75;;;;;;;;;;5043147;28;20106;-56
2021/08/02 12:46:03;;;;;;;31.08;15.82;;;;;;;;;;5050436;28;20586;-55
2021/08/02 12:48:28;;;;;;;30.08;16.05;;;;;;;;;;5035808;28;20079;-57
2021/08/02 12:50:54;;;;;;;28.55;16.05;;;;;;;;;;5036080;28;20497;-57
2021/08/02 12:53:20;;;;;;;33.13;15.23;;;;;;;;;;5034654;28;20084;-57
2021/08/02 12:55:46;;;;;;;28.83;14.68;;;;;;;;;;5036136;28;20508;-57
2021/08/02 12:58:12;;;;;;;24.83;15.43;;;;;;;;;;5035205;28;20045;-57
2021/08/02 13:00:38;;;;;;;26.58;16.25;;;;;;;;;;5036367;28;20116;-58
2021/08/02 13:03:07;;;;;;;27.10;15.63;;;;;;;;;;5034810;28;20142;-56
2021/08/02 13:05:33;;;;;;;24.50;14.70;;;;;;;;;;5034478;28;20040;-56
2021/08/02 13:07:59;;;;;;;23.70;15.20;;;;;;;;;;5034567;28;20466;-57
2021/08/02 13:10:28;;;;;;;28.15;15.82;;;;;;;;;;5035313;28;20053;-56
2021/08/02 13:12:54;;;;;;;26.40;16.25;;;;;;;;;;5036534;28;20032;-57
2021/08/02 13:15:19;;;;;;;28.42;14.95;;;;;;;;;;5038002;28;20122;-57
2021/08/02 13:17:45;;;;;;;28.88;15.55;;;;;;;;;;5039389;28;20041;-57
2021/08/02 13:20:12;;;;;;;27.75;15.30;;;;;;;;;;5038311;28;20069;-56
2021/08/02 13:22:49;;;;;;;27.95;14.75;;;;;;;;;;5036839;28;20041;-57
2021/08/02 13:27:59;;;;;;;28.52;14.70;;;;;;;;;;5038057;28;20048;-56
2021/08/02 13:30:25;;;;;;;25.08;15.30;;;;;;;;;;5038271;28;20033;-57
2021/08/02 13:32:51;;;;;;;25.92;15.88;;;;;;;;;;5038350;28;20597;-55
2021/08/02 13:35:17;;;;;;;27.88;15.65;;;;;;;;;;5039635;28;20128;-57
2021/08/02 13:37:42;;;;;;;34.42;15.73;;;;;;;;;;5038091;28;20041;-57
2021/08/02 13:40:08;;;;;;;29.70;15.77;;;;;;;;;;5038112;28;20053;-57
2021/08/02 13:42:34;;;;;;;31.88;15.93;;;;;;;;;;5038696;28;20044;-56
2021/08/02 13:45:00;;;;;;;25.75;15.52;;;;;;;;;;5038782;28;20398;-56
2021/08/02 13:47:29;;;;;;;36.42;16.20;;;;;;;;;;5037922;28;22678;-56
2021/08/02 13:49:55;;;;;;;30.60;15.70;;;;;;;;;;5038650;28;20159;-57
2021/08/02 13:52:20;;;;;;;24.38;15.50;;;;;;;;;;5037331;28;20049;-57
2021/08/02 13:54:46;;;;;;;31.20;14.80;;;;;;;;;;5038420;28;20041;-57
2021/08/02 13:57:12;;;;;;;32.17;15.43;;;;;;;;;;5053158;28;20037;-57
2021/08/02 13:59:41;;;;;;;27.17;14.68;;;;;;;;;;5039346;28;20124;-56
2021/08/02 14:02:07;;;;;;;26.52;15.63;;;;;;;;;;5069858;28;20091;-55
2021/08/02 14:04:35;;;;;;;24.40;14.38;;;;;;;;;;5039012;28;20818;-56
2021/08/02 14:07:01;;;;;;;22.17;14.15;;;;;;;;;;5040059;28;20063;-57
2021/08/02 14:09:26;;;;;;;26.27;15.52;;;;;;;;;;5037444;28;20481;-56
2021/08/02 14:11:59;;;;;;;31.58;14.90;;;;;;;;;;5044900;28;20135;-57
2021/08/02 14:14:28;;;;;;;24.27;14.48;;;;;;;;;;5059313;28;20093;-56
2021/08/02 14:16:55;;;;;;;25.38;14.88;;;;;;;;;;5058602;28;20037;-57
2021/08/02 14:19:26;;;;;;;25.90;14.65;;;;;;;;;;5053778;28;20036;-57
2021/08/02 14:21:56;;;;;;;28.02;14.73;;;;;;;;;;5045575;28;20060;-57